sensor_id;sensor_type;location;lat;lon;timestamp;temperature;humidity
21459;DHT22;10891;49.350;19.386;2023-03-31T00:01:27;6.70;99.90
21459;DHT22;10891;49.350;19.386;2023-03-31T00:03:54;6.70;99.90
21459;DHT22;10891;49.350;19.386;2023-03-31T00:06:28;6.70;99.90
21459;DHT22;10891;49.350;19.386;2023-03-31T00:08:55;6.70;99.90
21459;DHT22;10891;49.350;19.386;2023-03-31T00:11:27;6.60;99.90
21459;DHT22;10891;49.350;19.386;2023-03-31T00:13:54;6.50;99.90
21459;DHT22;10891;49.350;19.386;2023-03-31T00:16:23;6.40;99.90
21459;DHT22;10891;49.350;19.386;2023-03-31T00:18:50;6.40;99.90
21459;DHT22;10891;49.350;19.386;2023-03-31T00:21:18;6.40;99.90
21459;DHT22;10891;49.350;19.386;2023-03-31T00:23:55;6.40;99.90
21459;DHT22;10891;49.350;19.386;2023-03-31T00:26:22;6.50;99.90
21459;DHT22;10891;49.350;19.386;2023-03-31T00:28:49;6.50;99.90
21459;DHT22;10891;49.350;19.386;2023-03-31T00:31:16;6.60;99.90
21459;DHT22;10891;49.350;19.386;2023-03-31T00:33:45;6.60;99.90
21459;DHT22;10891;49.350;19.386;2023-03-31T00:36:12;6.60;99.90
21459;DHT22;10891;49.350;19.386;2023-03-31T00:38:42;6.70;99.90
21459;DHT22;10891;49.350;19.386;2023-03-31T00:41:11;6.70;99.90
21459;DHT22;10891;49.350;19.386;2023-03-31T00:43:38;6.70;99.90
21459;DHT22;10891;49.350;19.386;2023-03-31T00:46:15;6.80;99.90
21459;DHT22;10891;49.350;19.386;2023-03-31T00:48:47;6.80;99.90
21459;DHT22;10891;49.350;19.386;2023-03-31T00:51:14;6.70;99.90
21459;DHT22;10891;49.350;19.386;2023-03-31T00:53:41;6.70;99.90
21459;DHT22;10891;49.350;19.386;2023-03-31T00:56:12;6.70;99.90
21459;DHT22;10891;49.350;19.386;2023-03-31T00:58:41;6.70;99.90
21459;DHT22;10891;49.350;19.386;2023-03-31T01:01:12;6.70;99.90
21459;DHT22;10891;49.350;19.386;2023-03-31T01:03:41;6.60;99.90
21459;DHT22;10891;49.350;19.386;2023-03-31T01:06:14;6.60;99.90
21459;DHT22;10891;49.350;19.386;2023-03-31T01:08:44;6.50;99.90
21459;DHT22;10891;49.350;19.386;2023-03-31T01:11:13;6.50;99.90
21459;DHT22;10891;49.350;19.386;2023-03-31T01:13:42;6.50;99.90
21459;DHT22;10891;49.350;19.386;2023-03-31T01:16:10;6.50;99.90
21459;DHT22;10891;49.350;19.386;2023-03-31T01:18:37;6.50;99.90
21459;DHT22;10891;49.350;19.386;2023-03-31T01:21:27;6.50;99.90
21459;DHT22;10891;49.350;19.386;2023-03-31T01:27:25;6.70;99.90
21459;DHT22;10891;49.350;19.386;2023-03-31T01:36:58;7.00;99.90
21459;DHT22;10891;49.350;19.386;2023-03-31T01:39:55;7.10;99.90
21459;DHT22;10891;49.350;19.386;2023-03-31T01:42:30;7.10;99.90
21459;DHT22;10891;49.350;19.386;2023-03-31T01:45:06;7.10;99.90
21459;DHT22;10891;49.350;19.386;2023-03-31T01:47:41;7.00;99.90
21459;DHT22;10891;49.350;19.386;2023-03-31T01:50:17;7.10;99.90
21459;DHT22;10891;49.350;19.386;2023-03-31T01:52:48;7.10;99.90
21459;DHT22;10891;49.350;19.386;2023-03-31T01:55:22;7.10;99.90
21459;DHT22;10891;49.350;19.386;2023-03-31T01:57:52;7.10;99.90
21459;DHT22;10891;49.350;19.386;2023-03-31T02:00:23;7.10;99.90
21459;DHT22;10891;49.350;19.386;2023-03-31T02:02:57;7.10;99.90
21459;DHT22;10891;49.350;19.386;2023-03-31T02:05:31;7.10;99.90
21459;DHT22;10891;49.350;19.386;2023-03-31T02:08:05;7.20;99.90
21459;DHT22;10891;49.350;19.386;2023-03-31T02:10:35;7.20;99.90
21459;DHT22;10891;49.350;19.386;2023-03-31T02:13:03;7.20;99.90
21459;DHT22;10891;49.350;19.386;2023-03-31T02:15:34;7.20;99.90
21459;DHT22;10891;49.350;19.386;2023-03-31T02:18:05;7.20;99.90
21459;DHT22;10891;49.350;19.386;2023-03-31T02:20:37;7.20;99.90
21459;DHT22;10891;49.350;19.386;2023-03-31T02:23:09;7.10;99.90
21459;DHT22;10891;49.350;19.386;2023-03-31T02:25:42;7.20;99.90
21459;DHT22;10891;49.350;19.386;2023-03-31T02:28:14;7.10;99.90
21459;DHT22;10891;49.350;19.386;2023-03-31T02:30:47;7.10;99.90
21459;DHT22;10891;49.350;19.386;2023-03-31T02:33:16;7.20;99.90
21459;DHT22;10891;49.350;19.386;2023-03-31T02:35:44;7.20;99.90
21459;DHT22;10891;49.350;19.386;2023-03-31T02:38:10;7.30;99.90
21459;DHT22;10891;49.350;19.386;2023-03-31T02:40:39;7.30;99.90
21459;DHT22;10891;49.350;19.386;2023-03-31T02:43:06;7.30;99.90
21459;DHT22;10891;49.350;19.386;2023-03-31T02:45:39;7.30;99.90
21459;DHT22;10891;49.350;19.386;2023-03-31T02:48:08;7.30;99.90
21459;DHT22;10891;49.350;19.386;2023-03-31T02:50:47;7.20;99.90
21459;DHT22;10891;49.350;19.386;2023-03-31T02:53:19;7.10;99.90
21459;DHT22;10891;49.350;19.386;2023-03-31T02:56:00;7.10;99.90
21459;DHT22;10891;49.350;19.386;2023-03-31T02:58:44;7.10;99.90
21459;DHT22;10891;49.350;19.386;2023-03-31T03:01:42;7.10;99.90
21459;DHT22;10891;49.350;19.386;2023-03-31T03:04:31;7.10;99.90
21459;DHT22;10891;49.350;19.386;2023-03-31T03:07:06;7.00;99.90
21459;DHT22;10891;49.350;19.386;2023-03-31T03:09:40;7.00;99.90
21459;DHT22;10891;49.350;19.386;2023-03-31T03:12:16;7.00;99.90
21459;DHT22;10891;49.350;19.386;2023-03-31T03:14:47;7.00;99.90
21459;DHT22;10891;49.350;19.386;2023-03-31T03:17:21;7.00;99.90
21459;DHT22;10891;49.350;19.386;2023-03-31T03:19:54;7.00;99.90
21459;DHT22;10891;49.350;19.386;2023-03-31T03:22:21;7.10;99.90
21459;DHT22;10891;49.350;19.386;2023-03-31T03:24:49;7.10;99.90
21459;DHT22;10891;49.350;19.386;2023-03-31T03:27:18;7.10;99.90
21459;DHT22;10891;49.350;19.386;2023-03-31T03:29:46;7.10;99.90
21459;DHT22;10891;49.350;19.386;2023-03-31T03:32:13;7.10;99.90
21459;DHT22;10891;49.350;19.386;2023-03-31T03:34:40;7.00;99.90
21459;DHT22;10891;49.350;19.386;2023-03-31T03:37:07;7.00;99.90
21459;DHT22;10891;49.350;19.386;2023-03-31T03:39:34;7.00;99.90
21459;DHT22;10891;49.350;19.386;2023-03-31T03:42:01;7.00;99.90
21459;DHT22;10891;49.350;19.386;2023-03-31T03:44:29;7.10;99.90
21459;DHT22;10891;49.350;19.386;2023-03-31T03:46:56;7.00;99.90
21459;DHT22;10891;49.350;19.386;2023-03-31T03:49:23;7.00;99.90
21459;DHT22;10891;49.350;19.386;2023-03-31T03:51:50;7.00;99.90
21459;DHT22;10891;49.350;19.386;2023-03-31T03:54:17;6.80;99.90
21459;DHT22;10891;49.350;19.386;2023-03-31T03:56:44;6.50;99.90
21459;DHT22;10891;49.350;19.386;2023-03-31T03:59:11;6.40;99.90
21459;DHT22;10891;49.350;19.386;2023-03-31T04:01:39;6.30;99.90
21459;DHT22;10891;49.350;19.386;2023-03-31T04:04:06;6.20;99.90
21459;DHT22;10891;49.350;19.386;2023-03-31T04:06:34;6.10;99.90
21459;DHT22;10891;49.350;19.386;2023-03-31T04:09:01;6.00;99.90
21459;DHT22;10891;49.350;19.386;2023-03-31T04:11:28;6.00;99.90
21459;DHT22;10891;49.350;19.386;2023-03-31T04:13:55;6.00;99.90
21459;DHT22;10891;49.350;19.386;2023-03-31T04:16:22;5.90;99.90
21459;DHT22;10891;49.350;19.386;2023-03-31T04:18:51;5.80;99.90
21459;DHT22;10891;49.350;19.386;2023-03-31T04:21:21;5.70;99.90
21459;DHT22;10891;49.350;19.386;2023-03-31T04:23:49;5.50;99.90
21459;DHT22;10891;49.350;19.386;2023-03-31T04:26:24;5.50;99.90
21459;DHT22;10891;49.350;19.386;2023-03-31T04:28:56;5.60;99.90
21459;DHT22;10891;49.350;19.386;2023-03-31T04:31:25;5.70;99.90
21459;DHT22;10891;49.350;19.386;2023-03-31T04:33:58;5.80;99.90
21459;DHT22;10891;49.350;19.386;2023-03-31T04:36:27;5.80;99.90
21459;DHT22;10891;49.350;19.386;2023-03-31T04:38:56;5.90;99.90
21459;DHT22;10891;49.350;19.386;2023-03-31T04:41:24;6.10;99.90
21459;DHT22;10891;49.350;19.386;2023-03-31T04:43:53;6.30;99.90
21459;DHT22;10891;49.350;19.386;2023-03-31T04:46:20;6.30;99.90
21459;DHT22;10891;49.350;19.386;2023-03-31T04:48:47;6.40;99.90
21459;DHT22;10891;49.350;19.386;2023-03-31T04:51:16;6.40;99.90
21459;DHT22;10891;49.350;19.386;2023-03-31T04:53:45;6.50;99.90
21459;DHT22;10891;49.350;19.386;2023-03-31T04:56:12;6.50;99.90
21459;DHT22;10891;49.350;19.386;2023-03-31T04:58:39;6.60;99.90
21459;DHT22;10891;49.350;19.386;2023-03-31T05:01:06;6.50;99.90
21459;DHT22;10891;49.350;19.386;2023-03-31T05:03:33;6.40;99.90
21459;DHT22;10891;49.350;19.386;2023-03-31T05:06:01;6.20;99.90
21459;DHT22;10891;49.350;19.386;2023-03-31T05:08:29;6.00;99.90
21459;DHT22;10891;49.350;19.386;2023-03-31T05:10:56;5.90;99.90
21459;DHT22;10891;49.350;19.386;2023-03-31T05:13:23;5.90;99.90
21459;DHT22;10891;49.350;19.386;2023-03-31T05:15:51;6.00;99.90
21459;DHT22;10891;49.350;19.386;2023-03-31T05:18:18;6.30;99.90
21459;DHT22;10891;49.350;19.386;2023-03-31T05:20:45;6.50;99.90
21459;DHT22;10891;49.350;19.386;2023-03-31T05:23:15;6.70;99.90
21459;DHT22;10891;49.350;19.386;2023-03-31T05:25:43;6.80;99.90
21459;DHT22;10891;49.350;19.386;2023-03-31T05:28:10;6.80;99.90
21459;DHT22;10891;49.350;19.386;2023-03-31T05:30:37;6.90;99.90
21459;DHT22;10891;49.350;19.386;2023-03-31T05:33:04;6.90;99.90
21459;DHT22;10891;49.350;19.386;2023-03-31T05:35:31;7.00;99.90
21459;DHT22;10891;49.350;19.386;2023-03-31T05:37:58;7.20;99.90
21459;DHT22;10891;49.350;19.386;2023-03-31T05:40:25;7.80;99.90
21459;DHT22;10891;49.350;19.386;2023-03-31T05:42:53;8.40;99.90
21459;DHT22;10891;49.350;19.386;2023-03-31T05:45:20;8.60;99.90
21459;DHT22;10891;49.350;19.386;2023-03-31T05:47:47;8.30;99.90
21459;DHT22;10891;49.350;19.386;2023-03-31T05:50:14;8.10;99.90
21459;DHT22;10891;49.350;19.386;2023-03-31T05:52:41;8.70;99.90
21459;DHT22;10891;49.350;19.386;2023-03-31T05:55:09;9.20;99.90
21459;DHT22;10891;49.350;19.386;2023-03-31T05:57:36;9.00;99.90
21459;DHT22;10891;49.350;19.386;2023-03-31T06:00:06;8.80;99.90
21459;DHT22;10891;49.350;19.386;2023-03-31T06:02:35;8.80;99.90
21459;DHT22;10891;49.350;19.386;2023-03-31T06:05:03;8.90;99.90
21459;DHT22;10891;49.350;19.386;2023-03-31T06:07:30;8.90;99.90
21459;DHT22;10891;49.350;19.386;2023-03-31T06:09:56;9.00;99.90
21459;DHT22;10891;49.350;19.386;2023-03-31T06:12:24;9.00;99.90
21459;DHT22;10891;49.350;19.386;2023-03-31T06:14:51;9.10;99.90
21459;DHT22;10891;49.350;19.386;2023-03-31T06:17:19;9.00;99.90
21459;DHT22;10891;49.350;19.386;2023-03-31T06:19:46;8.90;99.90
21459;DHT22;10891;49.350;19.386;2023-03-31T06:22:13;9.00;99.90
21459;DHT22;10891;49.350;19.386;2023-03-31T06:24:39;9.00;99.90
21459;DHT22;10891;49.350;19.386;2023-03-31T06:27:06;9.10;99.90
21459;DHT22;10891;49.350;19.386;2023-03-31T06:29:33;9.30;99.90
21459;DHT22;10891;49.350;19.386;2023-03-31T06:32:00;9.80;99.90
21459;DHT22;10891;49.350;19.386;2023-03-31T06:34:30;10.90;99.90
21459;DHT22;10891;49.350;19.386;2023-03-31T06:36:58;12.00;99.90
21459;DHT22;10891;49.350;19.386;2023-03-31T06:39:25;12.80;99.90
21459;DHT22;10891;49.350;19.386;2023-03-31T06:41:52;13.20;99.90
21459;DHT22;10891;49.350;19.386;2023-03-31T06:44:20;13.30;99.90
21459;DHT22;10891;49.350;19.386;2023-03-31T06:46:47;13.30;99.90
21459;DHT22;10891;49.350;19.386;2023-03-31T06:49:14;13.30;99.90
21459;DHT22;10891;49.350;19.386;2023-03-31T06:51:43;12.90;99.90
21459;DHT22;10891;49.350;19.386;2023-03-31T06:54:10;12.70;99.90
21459;DHT22;10891;49.350;19.386;2023-03-31T06:56:37;12.40;99.90
21459;DHT22;10891;49.350;19.386;2023-03-31T06:59:04;12.10;99.90
21459;DHT22;10891;49.350;19.386;2023-03-31T07:01:31;11.70;99.90
21459;DHT22;10891;49.350;19.386;2023-03-31T07:04:02;11.30;99.90
21459;DHT22;10891;49.350;19.386;2023-03-31T07:06:29;11.00;99.90
21459;DHT22;10891;49.350;19.386;2023-03-31T07:08:57;10.90;99.90
21459;DHT22;10891;49.350;19.386;2023-03-31T07:11:24;10.60;99.90
21459;DHT22;10891;49.350;19.386;2023-03-31T07:13:51;10.20;99.90
21459;DHT22;10891;49.350;19.386;2023-03-31T07:16:18;10.20;99.90
21459;DHT22;10891;49.350;19.386;2023-03-31T07:18:45;10.10;99.90
21459;DHT22;10891;49.350;19.386;2023-03-31T07:21:12;10.20;99.90
21459;DHT22;10891;49.350;19.386;2023-03-31T07:23:39;10.30;99.90
21459;DHT22;10891;49.350;19.386;2023-03-31T07:26:07;10.20;99.90
21459;DHT22;10891;49.350;19.386;2023-03-31T07:28:34;10.10;99.90
21459;DHT22;10891;49.350;19.386;2023-03-31T07:31:01;10.10;99.90
21459;DHT22;10891;49.350;19.386;2023-03-31T07:33:27;10.10;99.90
21459;DHT22;10891;49.350;19.386;2023-03-31T07:35:54;10.00;99.90
21459;DHT22;10891;49.350;19.386;2023-03-31T07:38:21;9.90;99.90
21459;DHT22;10891;49.350;19.386;2023-03-31T07:40:48;9.90;99.90
21459;DHT22;10891;49.350;19.386;2023-03-31T07:43:16;9.80;99.90
21459;DHT22;10891;49.350;19.386;2023-03-31T07:45:43;9.90;99.90
21459;DHT22;10891;49.350;19.386;2023-03-31T07:48:10;9.80;99.90
21459;DHT22;10891;49.350;19.386;2023-03-31T07:50:37;10.00;99.90
21459;DHT22;10891;49.350;19.386;2023-03-31T07:53:04;10.20;99.90
21459;DHT22;10891;49.350;19.386;2023-03-31T07:55:32;10.50;99.90
21459;DHT22;10891;49.350;19.386;2023-03-31T07:57:59;10.70;99.90
21459;DHT22;10891;49.350;19.386;2023-03-31T08:00:27;10.80;99.90
21459;DHT22;10891;49.350;19.386;2023-03-31T08:02:54;10.70;99.90
21459;DHT22;10891;49.350;19.386;2023-03-31T08:05:21;10.70;99.90
21459;DHT22;10891;49.350;19.386;2023-03-31T08:07:49;10.70;99.90
21459;DHT22;10891;49.350;19.386;2023-03-31T08:10:18;10.80;99.90
21459;DHT22;10891;49.350;19.386;2023-03-31T08:12:46;10.80;99.90
21459;DHT22;10891;49.350;19.386;2023-03-31T08:15:13;10.80;99.90
21459;DHT22;10891;49.350;19.386;2023-03-31T08:17:41;11.10;99.90
21459;DHT22;10891;49.350;19.386;2023-03-31T08:20:09;11.50;99.90
21459;DHT22;10891;49.350;19.386;2023-03-31T08:22:36;11.80;99.90
21459;DHT22;10891;49.350;19.386;2023-03-31T08:25:04;11.90;99.90
21459;DHT22;10891;49.350;19.386;2023-03-31T08:27:33;12.40;99.90
21459;DHT22;10891;49.350;19.386;2023-03-31T08:30:00;12.60;99.90
21459;DHT22;10891;49.350;19.386;2023-03-31T08:32:29;12.80;99.90
21459;DHT22;10891;49.350;19.386;2023-03-31T08:34:58;13.30;99.90
21459;DHT22;10891;49.350;19.386;2023-03-31T08:37:25;13.30;99.90
21459;DHT22;10891;49.350;19.386;2023-03-31T08:39:53;13.30;99.90
21459;DHT22;10891;49.350;19.386;2023-03-31T08:42:27;13.30;99.90
21459;DHT22;10891;49.350;19.386;2023-03-31T08:45:00;13.30;99.90
21459;DHT22;10891;49.350;19.386;2023-03-31T08:47:29;13.50;99.90
21459;DHT22;10891;49.350;19.386;2023-03-31T08:50:03;13.60;99.90
21459;DHT22;10891;49.350;19.386;2023-03-31T08:52:35;13.90;99.90
21459;DHT22;10891;49.350;19.386;2023-03-31T08:55:07;14.00;99.90
21459;DHT22;10891;49.350;19.386;2023-03-31T08:57:40;13.90;99.90
21459;DHT22;10891;49.350;19.386;2023-03-31T09:00:14;13.80;99.90
21459;DHT22;10891;49.350;19.386;2023-03-31T09:02:45;13.60;99.90
21459;DHT22;10891;49.350;19.386;2023-03-31T09:05:39;13.70;99.90
21459;DHT22;10891;49.350;19.386;2023-03-31T09:08:13;13.60;99.90
21459;DHT22;10891;49.350;19.386;2023-03-31T09:10:50;13.10;99.90
21459;DHT22;10891;49.350;19.386;2023-03-31T09:13:33;13.10;99.90
21459;DHT22;10891;49.350;19.386;2023-03-31T09:16:03;13.10;99.90
21459;DHT22;10891;49.350;19.386;2023-03-31T09:18:37;13.10;99.90
21459;DHT22;10891;49.350;19.386;2023-03-31T09:21:13;13.00;99.90
21459;DHT22;10891;49.350;19.386;2023-03-31T09:23:45;13.00;99.90
21459;DHT22;10891;49.350;19.386;2023-03-31T09:26:22;13.20;99.90
21459;DHT22;10891;49.350;19.386;2023-03-31T09:28:51;13.40;99.90
21459;DHT22;10891;49.350;19.386;2023-03-31T09:31:20;13.80;99.90
21459;DHT22;10891;49.350;19.386;2023-03-31T09:33:50;13.90;99.90
21459;DHT22;10891;49.350;19.386;2023-03-31T09:36:20;13.80;99.90
21459;DHT22;10891;49.350;19.386;2023-03-31T09:38:48;13.90;99.90
21459;DHT22;10891;49.350;19.386;2023-03-31T09:41:16;13.50;99.90
21459;DHT22;10891;49.350;19.386;2023-03-31T09:43:45;13.00;99.90
21459;DHT22;10891;49.350;19.386;2023-03-31T09:46:16;12.80;99.90
21459;DHT22;10891;49.350;19.386;2023-03-31T09:48:51;12.80;99.90
21459;DHT22;10891;49.350;19.386;2023-03-31T09:51:25;12.80;99.90
21459;DHT22;10891;49.350;19.386;2023-03-31T09:53:58;12.60;99.90
21459;DHT22;10891;49.350;19.386;2023-03-31T09:56:44;12.30;99.90
21459;DHT22;10891;49.350;19.386;2023-03-31T09:59:14;12.20;99.90
21459;DHT22;10891;49.350;19.386;2023-03-31T10:01:43;12.50;99.90
21459;DHT22;10891;49.350;19.386;2023-03-31T10:04:18;12.60;99.90
21459;DHT22;10891;49.350;19.386;2023-03-31T10:06:47;12.80;99.90
21459;DHT22;10891;49.350;19.386;2023-03-31T10:09:17;12.80;99.90
21459;DHT22;10891;49.350;19.386;2023-03-31T10:11:54;13.00;99.90
21459;DHT22;10891;49.350;19.386;2023-03-31T10:14:31;13.30;99.90
21459;DHT22;10891;49.350;19.386;2023-03-31T10:17:02;13.30;99.90
21459;DHT22;10891;49.350;19.386;2023-03-31T10:19:31;13.90;99.90
21459;DHT22;10891;49.350;19.386;2023-03-31T10:22:01;14.30;99.90
21459;DHT22;10891;49.350;19.386;2023-03-31T10:24:36;14.80;99.90
21459;DHT22;10891;49.350;19.386;2023-03-31T10:27:05;15.20;99.90
21459;DHT22;10891;49.350;19.386;2023-03-31T10:29:33;15.60;99.90
21459;DHT22;10891;49.350;19.386;2023-03-31T10:32:07;15.90;99.90
21459;DHT22;10891;49.350;19.386;2023-03-31T10:34:37;16.20;99.90
21459;DHT22;10891;49.350;19.386;2023-03-31T10:37:10;16.10;99.90
21459;DHT22;10891;49.350;19.386;2023-03-31T10:39:39;15.80;99.90
21459;DHT22;10891;49.350;19.386;2023-03-31T10:42:06;15.40;99.90
21459;DHT22;10891;49.350;19.386;2023-03-31T10:44:34;15.20;99.90
21459;DHT22;10891;49.350;19.386;2023-03-31T10:47:05;15.10;99.90
21459;DHT22;10891;49.350;19.386;2023-03-31T10:49:37;14.90;99.90
21459;DHT22;10891;49.350;19.386;2023-03-31T10:52:14;14.90;99.90
21459;DHT22;10891;49.350;19.386;2023-03-31T10:54:46;15.30;99.90
21459;DHT22;10891;49.350;19.386;2023-03-31T10:57:14;15.40;99.90
21459;DHT22;10891;49.350;19.386;2023-03-31T10:59:55;15.80;99.90
21459;DHT22;10891;49.350;19.386;2023-03-31T11:02:56;15.50;99.90
21459;DHT22;10891;49.350;19.386;2023-03-31T11:05:31;15.60;99.90
21459;DHT22;10891;49.350;19.386;2023-03-31T11:08:22;15.80;99.90
21459;DHT22;10891;49.350;19.386;2023-03-31T11:11:05;15.90;99.90
21459;DHT22;10891;49.350;19.386;2023-03-31T11:13:36;15.80;99.90
21459;DHT22;10891;49.350;19.386;2023-03-31T11:16:13;15.80;99.90
21459;DHT22;10891;49.350;19.386;2023-03-31T11:18:52;15.70;99.90
21459;DHT22;10891;49.350;19.386;2023-03-31T11:21:25;15.60;99.90
21459;DHT22;10891;49.350;19.386;2023-03-31T11:24:03;15.50;99.90
21459;DHT22;10891;49.350;19.386;2023-03-31T11:26:41;15.40;99.90
21459;DHT22;10891;49.350;19.386;2023-03-31T11:29:18;15.30;99.90
21459;DHT22;10891;49.350;19.386;2023-03-31T11:31:54;15.40;99.90
21459;DHT22;10891;49.350;19.386;2023-03-31T11:34:38;15.50;99.90
21459;DHT22;10891;49.350;19.386;2023-03-31T11:37:20;15.40;99.90
21459;DHT22;10891;49.350;19.386;2023-03-31T11:40:03;15.60;99.90
21459;DHT22;10891;49.350;19.386;2023-03-31T11:42:38;16.00;99.90
21459;DHT22;10891;49.350;19.386;2023-03-31T11:45:14;15.40;99.90
21459;DHT22;10891;49.350;19.386;2023-03-31T11:47:43;15.20;99.90
21459;DHT22;10891;49.350;19.386;2023-03-31T11:50:15;14.90;99.90
21459;DHT22;10891;49.350;19.386;2023-03-31T11:52:49;14.80;99.90
21459;DHT22;10891;49.350;19.386;2023-03-31T11:55:21;14.60;99.90
21459;DHT22;10891;49.350;19.386;2023-03-31T11:57:58;14.20;99.90
21459;DHT22;10891;49.350;19.386;2023-03-31T12:00:28;14.00;99.90
21459;DHT22;10891;49.350;19.386;2023-03-31T12:03:00;13.60;99.90
21459;DHT22;10891;49.350;19.386;2023-03-31T12:05:31;13.60;99.90
21459;DHT22;10891;49.350;19.386;2023-03-31T12:08:02;13.40;99.90
21459;DHT22;10891;49.350;19.386;2023-03-31T12:10:34;13.80;99.90
21459;DHT22;10891;49.350;19.386;2023-03-31T12:13:08;14.40;99.90
21459;DHT22;10891;49.350;19.386;2023-03-31T12:15:45;14.80;99.90
21459;DHT22;10891;49.350;19.386;2023-03-31T12:18:20;15.00;99.90
21459;DHT22;10891;49.350;19.386;2023-03-31T12:20:51;14.80;99.90
21459;DHT22;10891;49.350;19.386;2023-03-31T12:23:21;14.60;99.90
21459;DHT22;10891;49.350;19.386;2023-03-31T12:25:53;14.60;99.90
21459;DHT22;10891;49.350;19.386;2023-03-31T12:28:23;14.80;99.90
21459;DHT22;10891;49.350;19.386;2023-03-31T12:30:52;15.20;99.90
21459;DHT22;10891;49.350;19.386;2023-03-31T12:33:23;15.40;99.90
21459;DHT22;10891;49.350;19.386;2023-03-31T12:36:02;15.20;99.90
21459;DHT22;10891;49.350;19.386;2023-03-31T12:38:45;15.30;99.90
21459;DHT22;10891;49.350;19.386;2023-03-31T12:41:18;15.20;99.90
21459;DHT22;10891;49.350;19.386;2023-03-31T12:44:09;15.00;99.90
21459;DHT22;10891;49.350;19.386;2023-03-31T12:49:51;14.70;99.90
21459;DHT22;10891;49.350;19.386;2023-03-31T12:52:24;14.70;99.90
21459;DHT22;10891;49.350;19.386;2023-03-31T12:57:45;14.40;99.90
21459;DHT22;10891;49.350;19.386;2023-03-31T13:00:23;14.40;99.90
21459;DHT22;10891;49.350;19.386;2023-03-31T13:05:55;13.30;99.90
21459;DHT22;10891;49.350;19.386;2023-03-31T13:08:53;12.80;99.90
21459;DHT22;10891;49.350;19.386;2023-03-31T13:11:22;12.20;99.90
21459;DHT22;10891;49.350;19.386;2023-03-31T13:14:02;12.00;99.90
21459;DHT22;10891;49.350;19.386;2023-03-31T13:16:31;11.90;99.90
21459;DHT22;10891;49.350;19.386;2023-03-31T13:18:58;11.70;99.90
21459;DHT22;10891;49.350;19.386;2023-03-31T13:21:26;11.60;99.90
21459;DHT22;10891;49.350;19.386;2023-03-31T13:23:58;11.50;99.90
21459;DHT22;10891;49.350;19.386;2023-03-31T13:26:45;11.60;99.90
21459;DHT22;10891;49.350;19.386;2023-03-31T13:29:26;11.70;99.90
21459;DHT22;10891;49.350;19.386;2023-03-31T13:32:14;11.80;99.90
21459;DHT22;10891;49.350;19.386;2023-03-31T13:34:45;11.80;99.90
21459;DHT22;10891;49.350;19.386;2023-03-31T13:37:38;11.90;99.90
21459;DHT22;10891;49.350;19.386;2023-03-31T13:43:43;12.10;99.90
21459;DHT22;10891;49.350;19.386;2023-03-31T13:46:40;12.00;99.90
21459;DHT22;10891;49.350;19.386;2023-03-31T13:49:41;12.20;99.90
21459;DHT22;10891;49.350;19.386;2023-03-31T13:52:12;12.40;99.90
21459;DHT22;10891;49.350;19.386;2023-03-31T13:58:15;13.70;99.90
21459;DHT22;10891;49.350;19.386;2023-03-31T14:01:00;14.40;99.90
21459;DHT22;10891;49.350;19.386;2023-03-31T14:03:47;14.70;99.90
21459;DHT22;10891;49.350;19.386;2023-03-31T14:06:23;15.00;99.90
21459;DHT22;10891;49.350;19.386;2023-03-31T14:08:54;14.80;99.90
21459;DHT22;10891;49.350;19.386;2023-03-31T14:11:24;14.30;99.90
21459;DHT22;10891;49.350;19.386;2023-03-31T14:13:59;14.00;99.90
21459;DHT22;10891;49.350;19.386;2023-03-31T14:16:34;13.60;99.90
21459;DHT22;10891;49.350;19.386;2023-03-31T14:22:07;13.80;99.90
21459;DHT22;10891;49.350;19.386;2023-03-31T14:24:40;13.80;99.90
21459;DHT22;10891;49.350;19.386;2023-03-31T14:27:16;13.80;99.90
21459;DHT22;10891;49.350;19.386;2023-03-31T14:29:53;13.50;99.90
21459;DHT22;10891;49.350;19.386;2023-03-31T14:32:28;13.40;99.90
21459;DHT22;10891;49.350;19.386;2023-03-31T14:35:11;13.40;99.90
21459;DHT22;10891;49.350;19.386;2023-03-31T14:37:48;13.80;99.90
21459;DHT22;10891;49.350;19.386;2023-03-31T14:40:16;13.80;99.90
21459;DHT22;10891;49.350;19.386;2023-03-31T14:42:45;13.80;99.90
21459;DHT22;10891;49.350;19.386;2023-03-31T14:45:17;13.90;99.90
21459;DHT22;10891;49.350;19.386;2023-03-31T14:47:56;13.70;99.90
21459;DHT22;10891;49.350;19.386;2023-03-31T14:50:30;13.40;99.90
21459;DHT22;10891;49.350;19.386;2023-03-31T14:52:59;13.20;99.90
21459;DHT22;10891;49.350;19.386;2023-03-31T14:55:28;13.00;99.90
21459;DHT22;10891;49.350;19.386;2023-03-31T14:57:59;12.90;99.90
21459;DHT22;10891;49.350;19.386;2023-03-31T15:00:29;12.70;99.90
21459;DHT22;10891;49.350;19.386;2023-03-31T15:02:59;12.60;99.90
21459;DHT22;10891;49.350;19.386;2023-03-31T15:05:31;12.50;99.90
21459;DHT22;10891;49.350;19.386;2023-03-31T15:08:01;12.30;99.90
21459;DHT22;10891;49.350;19.386;2023-03-31T15:10:34;12.20;99.90
21459;DHT22;10891;49.350;19.386;2023-03-31T15:13:07;12.10;99.90
21459;DHT22;10891;49.350;19.386;2023-03-31T15:15:36;12.10;99.90
21459;DHT22;10891;49.350;19.386;2023-03-31T15:18:04;12.10;99.90
21459;DHT22;10891;49.350;19.386;2023-03-31T15:20:36;12.20;99.90
21459;DHT22;10891;49.350;19.386;2023-03-31T15:23:18;12.20;99.90
21459;DHT22;10891;49.350;19.386;2023-03-31T15:25:50;12.40;99.90
21459;DHT22;10891;49.350;19.386;2023-03-31T15:28:18;12.60;99.90
21459;DHT22;10891;49.350;19.386;2023-03-31T15:30:47;12.70;99.90
21459;DHT22;10891;49.350;19.386;2023-03-31T15:33:18;12.60;99.90
21459;DHT22;10891;49.350;19.386;2023-03-31T15:35:48;12.50;99.90
21459;DHT22;10891;49.350;19.386;2023-03-31T15:38:16;12.50;99.90
21459;DHT22;10891;49.350;19.386;2023-03-31T15:40:45;12.70;99.90
21459;DHT22;10891;49.350;19.386;2023-03-31T15:43:17;12.90;99.90
21459;DHT22;10891;49.350;19.386;2023-03-31T15:45:47;12.80;99.90
21459;DHT22;10891;49.350;19.386;2023-03-31T15:48:21;12.70;99.90
21459;DHT22;10891;49.350;19.386;2023-03-31T15:50:50;12.50;99.90
21459;DHT22;10891;49.350;19.386;2023-03-31T15:53:24;12.40;99.90
21459;DHT22;10891;49.350;19.386;2023-03-31T15:55:54;12.60;99.90
21459;DHT22;10891;49.350;19.386;2023-03-31T16:01:11;12.30;99.90
21459;DHT22;10891;49.350;19.386;2023-03-31T16:03:40;11.90;99.90
21459;DHT22;10891;49.350;19.386;2023-03-31T16:06:16;11.60;99.90
21459;DHT22;10891;49.350;19.386;2023-03-31T16:08:46;11.30;99.90
21459;DHT22;10891;49.350;19.386;2023-03-31T16:11:19;11.10;99.90
21459;DHT22;10891;49.350;19.386;2023-03-31T16:13:53;10.90;99.90
21459;DHT22;10891;49.350;19.386;2023-03-31T16:16:23;10.80;99.90
21459;DHT22;10891;49.350;19.386;2023-03-31T16:18:53;10.80;99.90
21459;DHT22;10891;49.350;19.386;2023-03-31T16:21:32;10.80;99.90